Time;durP1;ratioP1;P1;durP2;ratioP2;P2;SDS_P1;SDS_P2;PMS_P1;PMS_P2;Temp;Humidity;BMP_temperature;BMP_pressure;BME280_temperature;BME280_humidity;BME280_pressure;Samples;Min_cycle;Max_cycle;Signal;HPM_P1;HPM_P2
2024/01/03 00:00:45;;;;;;;;;;;15.60;60.10;;;;;;5109322;28;19943;-67
2024/01/03 00:03:11;;;;;;;;;;;15.50;60.00;;;;;;5109150;28;20367;-68
2024/01/03 00:05:38;;;;;;;;;;;15.50;60.00;;;;;;5109917;28;19920;-67
2024/01/03 00:08:04;;;;;;;;;;;15.60;60.10;;;;;;5108753;28;20003;-67
2024/01/03 00:10:47;;;;;;;;;;;15.60;60.10;;;;;;5108588;28;19920;-67
2024/01/03 00:16:26;;;;;;;;;;;15.50;60.10;;;;;;5110330;27;19922;-68
2024/01/03 00:18:57;;;;;;;;;;;15.50;60.10;;;;;;5109194;28;19988;-67
2024/01/03 00:21:25;;;;;;;;;;;15.50;60.10;;;;;;5109294;28;19931;-67
2024/01/03 00:23:52;;;;;;;;;;;15.50;60.10;;;;;;5108934;28;19920;-67
2024/01/03 00:26:18;;;;;;;;;;;15.50;60.10;;;;;;5091765;28;19924;-67
2024/01/03 00:28:44;;;;;;;;;;;15.50;60.20;;;;;;5108920;28;19920;-67
2024/01/03 00:31:10;;;;;;;;;;;15.50;60.20;;;;;;5108699;28;19920;-68
2024/01/03 00:33:40;;;;;;;;;;;15.50;60.20;;;;;;5108707;28;19927;-67
2024/01/03 00:36:06;;;;;;;;;;;15.50;60.20;;;;;;5108658;28;19924;-67
2024/01/03 00:38:36;;;;;;;;;;;15.50;60.30;;;;;;5109259;28;19951;-67
2024/01/03 00:41:02;;;;;;;;;;;15.40;60.20;;;;;;5109203;28;19926;-67
2024/01/03 00:43:27;;;;;;;;;;;15.50;61.00;;;;;;5109909;28;20365;-69
2024/01/03 00:45:53;;;;;;;;;;;15.40;60.20;;;;;;5108675;28;19969;-67
2024/01/03 00:48:19;;;;;;;;;;;15.50;60.30;;;;;;5108774;28;20069;-68
2024/01/03 00:50:44;;;;;;;;;;;15.40;60.20;;;;;;5108589;28;20370;-68
2024/01/03 00:53:11;;;;;;;;;;;15.40;60.20;;;;;;5108303;28;20324;-67
2024/01/03 00:55:37;;;;;;;;;;;15.40;61.00;;;;;;5108099;28;19950;-68
2024/01/03 00:58:02;;;;;;;;;;;15.80;60.30;;;;;;5109471;28;19923;-67
2024/01/03 01:00:28;;;;;;;;;;;16.30;59.10;;;;;;5108484;28;20238;-67
2024/01/03 01:02:54;;;;;;;;;;;16.80;57.80;;;;;;5108423;28;20431;-67
2024/01/03 01:05:20;;;;;;;;;;;17.50;56.40;;;;;;5108047;28;20023;-68
2024/01/03 01:07:45;;;;;;;;;;;18.20;54.60;;;;;;5108361;28;19961;-68
2024/01/03 01:10:11;;;;;;;;;;;19.00;52.90;;;;;;5109351;28;20372;-68
2024/01/03 01:12:36;;;;;;;;;;;19.70;51.30;;;;;;5108149;28;19920;-68
2024/01/03 01:15:02;;;;;;;;;;;20.40;49.70;;;;;;5120079;28;20393;-68
2024/01/03 01:17:27;;;;;;;;;;;21.00;48.10;;;;;;5111420;28;19932;-68
2024/01/03 01:19:53;;;;;;;;;;;21.60;47.10;;;;;;5129669;28;19920;-68
2024/01/03 01:22:19;;;;;;;;;;;22.20;46.20;;;;;;5129598;28;19919;-68
2024/01/03 01:24:47;;;;;;;;;;;22.60;45.20;;;;;;5111443;28;19969;-67
2024/01/03 01:27:13;;;;;;;;;;;23.10;44.40;;;;;;5117206;28;19920;-67
2024/01/03 01:29:38;;;;;;;;;;;23.40;43.70;;;;;;5097661;28;19924;-68
2024/01/03 01:32:04;;;;;;;;;;;23.80;43.30;;;;;;5097665;28;19919;-67
2024/01/03 01:34:33;;;;;;;;;;;23.80;42.90;;;;;;5097401;28;19931;-68
2024/01/03 01:37:01;;;;;;;;;;;23.90;42.60;;;;;;5097579;28;19919;-67
2024/01/03 01:39:27;;;;;;;;;;;23.90;42.80;;;;;;5097277;28;19923;-68
2024/01/03 01:41:52;;;;;;;;;;;23.80;42.60;;;;;;5097106;28;20057;-68
2024/01/03 01:44:18;;;;;;;;;;;23.70;42.60;;;;;;5115388;28;19965;-68
2024/01/03 01:46:44;;;;;;;;;;;23.60;42.80;;;;;;5097408;28;20006;-68
2024/01/03 01:49:10;;;;;;;;;;;23.50;43.00;;;;;;5097110;28;19927;-68
2024/01/03 01:51:36;;;;;;;;;;;23.30;43.10;;;;;;5115309;28;19920;-68
2024/01/03 01:54:05;;;;;;;;;;;23.20;43.50;;;;;;5096874;28;19928;-67
2024/01/03 01:56:32;;;;;;;;;;;23.00;43.50;;;;;;5096995;28;19920;-67
2024/01/03 01:58:58;;;;;;;;;;;22.90;43.90;;;;;;5096795;28;20011;-67
2024/01/03 02:01:25;;;;;;;;;;;22.70;44.00;;;;;;5096793;28;20431;-68
2024/01/03 02:03:51;;;;;;;;;;;22.50;44.30;;;;;;5130865;27;20382;-68
2024/01/03 02:06:19;;;;;;;;;;;22.30;44.60;;;;;;5130932;27;19926;-68
2024/01/03 02:08:44;;;;;;;;;;;22.10;45.00;;;;;;5097061;28;19919;-67
2024/01/03 02:11:10;;;;;;;;;;;21.80;45.30;;;;;;5096670;28;20402;-68
2024/01/03 02:13:35;;;;;;;;;;;21.70;45.70;;;;;;5096423;28;19920;-67
2024/01/03 02:16:01;;;;;;;;;;;21.50;46.00;;;;;;5096300;28;19931;-67
2024/01/03 02:18:27;;;;;;;;;;;21.30;46.30;;;;;;5096663;28;19919;-69
2024/01/03 02:20:55;;;;;;;;;;;21.10;46.60;;;;;;5095863;28;20290;-68
2024/01/03 02:23:21;;;;;;;;;;;20.90;46.80;;;;;;5096410;28;19920;-68
2024/01/03 02:25:46;;;;;;;;;;;20.80;47.10;;;;;;5114655;28;19927;-68
2024/01/03 02:28:12;;;;;;;;;;;20.70;47.40;;;;;;5114469;28;20382;-68
2024/01/03 02:30:37;;;;;;;;;;;20.50;47.60;;;;;;5096228;28;19927;-68
2024/01/03 02:33:04;;;;;;;;;;;20.40;47.80;;;;;;5096241;28;19919;-68
2024/01/03 02:35:29;;;;;;;;;;;20.30;48.80;;;;;;5096137;28;19970;-67
2024/01/03 02:37:55;;;;;;;;;;;20.20;48.20;;;;;;5095486;28;19975;-67
2024/01/03 02:40:20;;;;;;;;;;;20.10;48.40;;;;;;5114335;28;20301;-68
2024/01/03 02:42:46;;;;;;;;;;;20.00;48.60;;;;;;5096420;28;19927;-67
2024/01/03 02:45:11;;;;;;;;;;;19.90;48.70;;;;;;5096326;28;19930;-68
2024/01/03 02:47:40;;;;;;;;;;;19.80;48.90;;;;;;5079541;28;19919;-67
2024/01/03 02:50:06;;;;;;;;;;;19.70;49.00;;;;;;5095917;28;19923;-67
2024/01/03 02:52:31;;;;;;;;;;;19.60;49.20;;;;;;5129984;27;19968;-68
2024/01/03 02:54:57;;;;;;;;;;;19.50;49.30;;;;;;5114020;28;19981;-68
2024/01/03 02:57:23;;;;;;;;;;;19.50;49.60;;;;;;5095715;28;19965;-68
2024/01/03 02:59:49;;;;;;;;;;;19.40;49.70;;;;;;5096023;28;19926;-67
2024/01/03 03:02:14;;;;;;;;;;;19.30;49.80;;;;;;5114117;28;20371;-68
2024/01/03 03:04:40;;;;;;;;;;;19.30;50.00;;;;;;5095885;28;19989;-67
2024/01/03 03:07:05;;;;;;;;;;;19.20;50.10;;;;;;5113951;28;20389;-67
2024/01/03 03:09:31;;;;;;;;;;;19.10;50.20;;;;;;5113764;28;20015;-67
2024/01/03 03:12:00;;;;;;;;;;;19.10;50.30;;;;;;5095761;28;19919;-68
2024/01/03 03:14:25;;;;;;;;;;;19.00;50.50;;;;;;5095662;28;20264;-67
2024/01/03 03:16:51;;;;;;;;;;;18.90;50.50;;;;;;5113523;28;20057;-69
2024/01/03 03:19:16;;;;;;;;;;;18.90;50.70;;;;;;5095700;28;20002;-68
2024/01/03 03:21:42;;;;;;;;;;;18.80;50.90;;;;;;5095483;28;20374;-68
2024/01/03 03:24:08;;;;;;;;;;;18.70;51.00;;;;;;5095211;28;20298;-68
2024/01/03 03:26:33;;;;;;;;;;;18.70;51.20;;;;;;5095233;28;20010;-68
2024/01/03 03:28:59;;;;;;;;;;;18.60;51.20;;;;;;5095419;28;19924;-67
2024/01/03 03:31:24;;;;;;;;;;;18.60;51.40;;;;;;5095265;28;20367;-67
2024/01/03 03:33:50;;;;;;;;;;;18.50;51.50;;;;;;5095064;28;19927;-67
2024/01/03 03:36:15;;;;;;;;;;;18.50;51.60;;;;;;5095011;28;19927;-67
2024/01/03 03:38:41;;;;;;;;;;;18.40;51.70;;;;;;5113432;28;19926;-68
2024/01/03 03:41:09;;;;;;;;;;;18.40;51.80;;;;;;5094906;28;19966;-67
2024/01/03 03:43:34;;;;;;;;;;;18.30;51.90;;;;;;5113273;28;20038;-68
2024/01/03 03:46:00;;;;;;;;;;;18.30;52.00;;;;;;5094869;28;20350;-68
2024/01/03 03:48:26;;;;;;;;;;;18.30;52.10;;;;;;5113267;28;20010;-68
2024/01/03 03:50:51;;;;;;;;;;;18.20;52.20;;;;;;5112875;28;19959;-67
2024/01/03 03:53:17;;;;;;;;;;;18.20;52.30;;;;;;5095027;28;19962;-68
2024/01/03 03:55:42;;;;;;;;;;;18.10;52.30;;;;;;5094774;28;19934;-67
2024/01/03 03:58:11;;;;;;;;;;;18.10;52.40;;;;;;5112899;28;19927;-67
2024/01/03 04:00:36;;;;;;;;;;;18.00;52.50;;;;;;5094868;28;20025;-67
2024/01/03 04:03:06;;;;;;;;;;;18.00;52.70;;;;;;5113106;28;20340;-67
2024/01/03 04:05:32;;;;;;;;;;;17.90;52.70;;;;;;5095135;28;20380;-67
2024/01/03 04:07:58;;;;;;;;;;;17.90;52.90;;;;;;5094540;28;19919;-67
2024/01/03 04:10:23;;;;;;;;;;;17.70;52.90;;;;;;5094895;28;19919;-68
2024/01/03 04:12:49;;;;;;;;;;;17.70;53.10;;;;;;5112929;28;20407;-67
2024/01/03 04:15:15;;;;;;;;;;;17.70;53.20;;;;;;5094179;28;20007;-68
2024/01/03 04:17:41;;;;;;;;;;;17.60;53.20;;;;;;5112788;28;19920;-68
2024/01/03 04:20:07;;;;;;;;;;;17.60;53.30;;;;;;5094578;28;20014;-68
2024/01/03 04:22:32;;;;;;;;;;;17.50;53.40;;;;;;5112989;28;19924;-68
2024/01/03 04:25:01;;;;;;;;;;;17.50;53.50;;;;;;5112698;28;19973;-68
2024/01/03 04:27:27;;;;;;;;;;;17.50;53.70;;;;;;5094674;28;19928;-68
2024/01/03 04:29:52;;;;;;;;;;;17.40;53.70;;;;;;5094332;28;19993;-67
2024/01/03 04:32:18;;;;;;;;;;;17.40;53.80;;;;;;5112539;28;19920;-67
2024/01/03 04:34:44;;;;;;;;;;;17.40;53.90;;;;;;5094470;28;19923;-67
2024/01/03 04:37:09;;;;;;;;;;;17.30;54.00;;;;;;5077990;28;20386;-67
2024/01/03 04:39:35;;;;;;;;;;;17.30;54.10;;;;;;5094511;28;20286;-68
2024/01/03 04:42:03;;;;;;;;;;;17.20;54.90;;;;;;5094246;28;19919;-67
2024/01/03 04:44:29;;;;;;;;;;;17.20;54.30;;;;;;5112630;28;19920;-67
2024/01/03 04:46:54;;;;;;;;;;;17.20;54.40;;;;;;5112439;28;20366;-68
2024/01/03 04:49:20;;;;;;;;;;;17.10;54.60;;;;;;5094236;28;19920;-67
2024/01/03 04:51:45;;;;;;;;;;;17.00;54.70;;;;;;5112466;28;20097;-67
2024/01/03 04:54:14;;;;;;;;;;;17.00;54.80;;;;;;5112431;28;19924;-67
2024/01/03 04:56:40;;;;;;;;;;;17.00;54.90;;;;;;5094465;28;19920;-67
2024/01/03 04:59:08;;;;;;;;;;;16.90;54.90;;;;;;5093988;28;19927;-67
2024/01/03 05:01:34;;;;;;;;;;;16.80;55.00;;;;;;5113901;28;19920;-67
2024/01/03 05:03:59;;;;;;;;;;;16.80;55.10;;;;;;5098451;28;19942;-67
2024/01/03 05:06:25;;;;;;;;;;;16.70;55.20;;;;;;5116407;28;19920;-67
2024/01/03 05:08:50;;;;;;;;;;;16.80;55.50;;;;;;5097785;28;20403;-67
2024/01/03 05:11:16;;;;;;;;;;;16.70;55.50;;;;;;5097888;28;19965;-70
2024/01/03 05:13:41;;;;;;;;;;;16.70;55.60;;;;;;5097817;28;19924;-69
2024/01/03 05:16:13;;;;;;;;;;;16.70;55.70;;;;;;5098118;28;19924;-69
2024/01/03 05:18:38;;;;;;;;;;;16.70;55.70;;;;;;5131686;27;19927;-70
2024/01/03 05:21:05;;;;;;;;;;;16.60;55.80;;;;;;5097958;28;19919;-69
2024/01/03 05:23:31;;;;;;;;;;;16.60;55.90;;;;;;5097962;28;19920;-69
2024/01/03 05:25:56;;;;;;;;;;;16.60;56.00;;;;;;5097779;28;19972;-69
2024/01/03 05:28:22;;;;;;;;;;;16.50;56.10;;;;;;5115806;28;20423;-70
2024/01/03 05:30:47;;;;;;;;;;;16.50;56.10;;;;;;5097753;28;20451;-70
2024/01/03 05:33:13;;;;;;;;;;;16.50;56.20;;;;;;5097366;28;20413;-69
2024/01/03 05:35:38;;;;;;;;;;;16.50;56.30;;;;;;5097318;28;19923;-69
2024/01/03 05:38:04;;;;;;;;;;;16.50;56.30;;;;;;5097648;28;19920;-69
2024/01/03 05:40:29;;;;;;;;;;;16.40;56.30;;;;;;5115510;28;20438;-69
2024/01/03 05:42:55;;;;;;;;;;;16.50;56.40;;;;;;5097191;28;19926;-69
2024/01/03 05:45:20;;;;;;;;;;;16.40;56.40;;;;;;5097577;28;19927;-69
2024/01/03 05:47:46;;;;;;;;;;;16.40;56.40;;;;;;5115901;28;19919;-69
2024/01/03 05:50:11;;;;;;;;;;;16.40;56.50;;;;;;5097098;28;19923;-70
2024/01/03 05:52:37;;;;;;;;;;;16.40;56.50;;;;;;5097354;28;19926;-69
2024/01/03 05:55:03;;;;;;;;;;;16.40;56.60;;;;;;5097009;28;20442;-69
2024/01/03 05:57:29;;;;;;;;;;;16.40;56.60;;;;;;5097274;28;19920;-69
2024/01/03 05:59:54;;;;;;;;;;;16.40;56.60;;;;;;5115310;28;20401;-70
2024/01/03 06:02:20;;;;;;;;;;;16.40;56.70;;;;;;5097121;28;19920;-70
2024/01/03 06:04:47;;;;;;;;;;;16.30;56.60;;;;;;5115077;28;19924;-69
2024/01/03 06:07:13;;;;;;;;;;;16.30;56.70;;;;;;5096710;28;19920;-69
2024/01/03 06:09:38;;;;;;;;;;;16.30;56.70;;;;;;5097120;28;19942;-69
2024/01/03 06:12:04;;;;;;;;;;;16.30;56.80;;;;;;5114851;28;20361;-69
2024/01/03 06:14:29;;;;;;;;;;;16.30;56.80;;;;;;5096618;28;19924;-70
2024/01/03 06:16:55;;;;;;;;;;;16.30;56.80;;;;;;5096554;28;19924;-71
2024/01/03 06:19:20;;;;;;;;;;;16.30;56.80;;;;;;5096493;28;20014;-70
2024/01/03 06:21:46;;;;;;;;;;;16.30;56.90;;;;;;5114991;28;19927;-69
2024/01/03 06:24:15;;;;;;;;;;;16.20;56.80;;;;;;5096819;28;19924;-70
2024/01/03 06:26:40;;;;;;;;;;;16.30;56.90;;;;;;5114752;28;19987;-69
2024/01/03 06:29:06;;;;;;;;;;;16.20;56.90;;;;;;5114666;28;20383;-69
2024/01/03 06:31:31;;;;;;;;;;;16.20;56.90;;;;;;5096331;28;19923;-69
2024/01/03 06:33:57;;;;;;;;;;;16.20;56.90;;;;;;5096171;28;19919;-69
2024/01/03 06:36:22;;;;;;;;;;;16.20;56.90;;;;;;5096164;28;20014;-70
2024/01/03 06:38:48;;;;;;;;;;;16.20;57.00;;;;;;5096537;28;19931;-69
2024/01/03 06:41:14;;;;;;;;;;;16.20;57.00;;;;;;5096049;28;20371;-69
2024/01/03 06:43:39;;;;;;;;;;;16.20;57.00;;;;;;5096376;28;19920;-68
2024/01/03 06:46:05;;;;;;;;;;;16.20;57.10;;;;;;5114343;28;20019;-69
2024/01/03 06:48:31;;;;;;;;;;;16.10;57.10;;;;;;5095875;28;19945;-69
2024/01/03 06:50:56;;;;;;;;;;;16.10;57.10;;;;;;5095830;28;19924;-69
2024/01/03 06:53:22;;;;;;;;;;;16.10;57.10;;;;;;5096097;28;19978;-69
2024/01/03 06:55:48;;;;;;;;;;;16.10;57.20;;;;;;5095706;28;19923;-69
2024/01/03 06:58:13;;;;;;;;;;;16.10;57.20;;;;;;5095992;28;19920;-69
2024/01/03 07:00:39;;;;;;;;;;;16.10;57.20;;;;;;5095728;28;20398;-69
2024/01/03 07:03:05;;;;;;;;;;;16.10;57.30;;;;;;5095548;28;19927;-70
2024/01/03 07:05:30;;;;;;;;;;;16.10;57.30;;;;;;5113800;28;19920;-69
2024/01/03 07:07:58;;;;;;;;;;;16.10;57.40;;;;;;5095772;28;20290;-69
2024/01/03 07:10:30;;;;;;;;;;;16.00;57.30;;;;;;5113903;28;19920;-69
2024/01/03 07:13:06;;;;;;;;;;;16.00;57.40;;;;;;5095705;28;19969;-69
2024/01/03 07:15:32;;;;;;;;;;;16.00;57.40;;;;;;5091875;28;20276;-69
2024/01/03 07:17:59;;;;;;;;;;;16.00;57.40;;;;;;5091824;28;20287;-70
2024/01/03 07:20:25;;;;;;;;;;;16.00;57.50;;;;;;5092275;28;20000;-69
2024/01/03 07:22:51;;;;;;;;;;;16.00;57.50;;;;;;5093141;28;20286;-70
2024/01/03 07:25:16;;;;;;;;;;;16.00;57.50;;;;;;5091356;28;19920;-69
2024/01/03 07:27:42;;;;;;;;;;;15.90;57.50;;;;;;5093445;28;19978;-69
2024/01/03 07:30:08;;;;;;;;;;;15.90;57.60;;;;;;5092959;28;19920;-69
2024/01/03 07:32:34;;;;;;;;;;;15.90;57.60;;;;;;5091762;28;19963;-69
2024/01/03 07:34:59;;;;;;;;;;;15.90;57.70;;;;;;5093296;28;19978;-69
2024/01/03 07:37:25;;;;;;;;;;;15.90;57.70;;;;;;5092988;28;20436;-70
2024/01/03 07:39:50;;;;;;;;;;;15.90;57.70;;;;;;5093396;28;19992;-69
2024/01/03 07:42:16;;;;;;;;;;;15.90;57.70;;;;;;5093024;28;19977;-69
2024/01/03 07:44:42;;;;;;;;;;;15.90;57.70;;;;;;5092928;28;20383;-69
2024/01/03 07:47:08;;;;;;;;;;;15.90;57.90;;;;;;5091836;28;19920;-69
2024/01/03 07:49:35;;;;;;;;;;;15.80;57.80;;;;;;5091349;28;19973;-69
2024/01/03 07:52:00;;;;;;;;;;;15.80;57.90;;;;;;5092930;28;19920;-69
2024/01/03 07:54:26;;;;;;;;;;;15.90;58.00;;;;;;5092664;28;20504;-69
2024/01/03 07:56:51;;;;;;;;;;;15.80;57.90;;;;;;5092676;28;20103;-70
2024/01/03 07:59:17;;;;;;;;;;;15.80;57.90;;;;;;5092562;28;19920;-69
2024/01/03 08:01:42;;;;;;;;;;;15.80;58.00;;;;;;5092549;28;20019;-69
2024/01/03 08:04:08;;;;;;;;;;;15.80;58.00;;;;;;5091473;28;19999;-69
2024/01/03 08:06:33;;;;;;;;;;;15.80;58.00;;;;;;5091449;28;19924;-69
2024/01/03 08:08:59;;;;;;;;;;;15.80;58.10;;;;;;5093129;28;20345;-69
2024/01/03 08:11:26;;;;;;;;;;;15.80;58.00;;;;;;5091329;28;19924;-69
2024/01/03 08:13:51;;;;;;;;;;;15.80;58.10;;;;;;5092444;28;19928;-69
2024/01/03 08:16:17;;;;;;;;;;;15.80;58.10;;;;;;5094241;28;19923;-70
2024/01/03 08:18:44;;;;;;;;;;;15.80;58.20;;;;;;5112935;28;20282;-69
2024/01/03 08:21:10;;;;;;;;;;;15.80;58.10;;;;;;5112704;28;19920;-70
2024/01/03 08:23:35;;;;;;;;;;;15.80;58.10;;;;;;5094818;28;19920;-70
2024/01/03 08:26:12;;;;;;;;;;;15.80;58.20;;;;;;5094548;28;19927;-69
2024/01/03 08:28:40;;;;;;;;;;;15.70;58.20;;;;;;5094670;28;19923;-69
2024/01/03 08:31:13;;;;;;;;;;;15.70;58.10;;;;;;5112656;28;19969;-69
2024/01/03 08:33:39;;;;;;;;;;;15.80;58.20;;;;;;5094636;28;20014;-69
2024/01/03 08:36:04;;;;;;;;;;;15.80;58.20;;;;;;5113302;28;20422;-69
2024/01/03 08:38:31;;;;;;;;;;;15.80;58.20;;;;;;5116824;28;19924;-69
2024/01/03 08:40:56;;;;;;;;;;;15.80;58.20;;;;;;5098283;28;19923;-69
2024/01/03 08:43:22;;;;;;;;;;;15.70;58.20;;;;;;5098390;28;19931;-69
2024/01/03 08:45:47;;;;;;;;;;;15.70;58.20;;;;;;5098658;28;20023;-69
2024/01/03 08:48:13;;;;;;;;;;;15.70;58.20;;;;;;5116572;28;20006;-69
2024/01/03 08:50:38;;;;;;;;;;;15.70;58.20;;;;;;5098470;28;19919;-69
2024/01/03 08:53:04;;;;;;;;;;;15.70;58.20;;;;;;5098223;28;19926;-69
2024/01/03 08:55:29;;;;;;;;;;;15.70;58.20;;;;;;5116381;28;19924;-69
2024/01/03 08:57:56;;;;;;;;;;;15.70;58.20;;;;;;5098305;28;19924;-69
2024/01/03 09:00:23;;;;;;;;;;;15.70;58.30;;;;;;5098134;28;19924;-70
2024/01/03 09:02:49;;;;;;;;;;;15.70;58.30;;;;;;5098265;28;20010;-69
2024/01/03 09:05:18;;;;;;;;;;;15.70;58.30;;;;;;5097813;28;19924;-69
2024/01/03 09:07:44;;;;;;;;;;;15.70;58.30;;;;;;5098189;28;19934;-69
2024/01/03 09:10:13;;;;;;;;;;;15.70;58.30;;;;;;5098239;28;19919;-69
2024/01/03 09:12:39;;;;;;;;;;;15.70;58.40;;;;;;5116205;28;19926;-69
2024/01/03 09:15:05;;;;;;;;;;;15.70;58.30;;;;;;5097611;28;19924;-69
2024/01/03 09:17:30;;;;;;;;;;;15.70;58.30;;;;;;5115892;28;19919;-70
2024/01/03 09:19:56;;;;;;;;;;;15.70;58.40;;;;;;5097684;28;19973;-70
2024/01/03 09:22:21;;;;;;;;;;;15.70;58.40;;;;;;5116095;28;19919;-69
2024/01/03 09:24:47;;;;;;;;;;;15.70;58.40;;;;;;5097908;28;19927;-69
2024/01/03 09:27:12;;;;;;;;;;;15.70;58.40;;;;;;5097512;28;20378;-69
2024/01/03 09:29:40;;;;;;;;;;;15.70;58.40;;;;;;5097446;28;19926;-69
2024/01/03 09:32:07;;;;;;;;;;;15.70;58.40;;;;;;5097373;28;20045;-69
2024/01/03 09:34:37;;;;;;;;;;;15.70;58.40;;;;;;5097549;28;19927;-69
2024/01/03 09:37:03;;;;;;;;;;;15.70;58.40;;;;;;5097650;28;19924;-69
2024/01/03 09:39:28;;;;;;;;;;;15.60;58.30;;;;;;5115671;28;19920;-70
2024/01/03 09:41:54;;;;;;;;;;;15.60;58.40;;;;;;5115563;28;19927;-69
2024/01/03 09:44:20;;;;;;;;;;;15.70;58.40;;;;;;5131601;27;19920;-69
2024/01/03 09:46:48;;;;;;;;;;;15.70;58.40;;;;;;5096623;28;20010;-69
2024/01/03 09:49:15;;;;;;;;;;;15.70;58.50;;;;;;5097382;28;19928;-70
2024/01/03 09:51:40;;;;;;;;;;;16.00;58.50;;;;;;5097112;28;19924;-69
2024/01/03 09:54:09;;;;;;;;;;;16.40;57.50;;;;;;5115568;28;19919;-69
2024/01/03 09:56:37;;;;;;;;;;;16.80;56.60;;;;;;5096983;28;20386;-69
2024/01/03 09:59:03;;;;;;;;;;;17.40;55.40;;;;;;5096800;28;20378;-69
2024/01/03 10:01:28;;;;;;;;;;;18.00;54.00;;;;;;5115221;28;19920;-69
2024/01/03 10:03:54;;;;;;;;;;;18.70;52.40;;;;;;5097110;28;19920;-69
2024/01/03 10:06:19;;;;;;;;;;;19.40;51.00;;;;;;5096955;28;19920;-69
2024/01/03 10:09:01;;;;;;;;;;;20.20;49.60;;;;;;5096752;28;19919;-69
2024/01/03 10:11:26;;;;;;;;;;;20.80;48.20;;;;;;5115020;28;19926;-69
2024/01/03 10:13:53;;;;;;;;;;;21.50;46.60;;;;;;5114979;28;19924;-69
2024/01/03 10:16:23;;;;;;;;;;;22.00;45.80;;;;;;5114501;28;20332;-70
2024/01/03 10:19:12;;;;;;;;;;;22.40;45.00;;;;;;5114622;28;20380;-70
2024/01/03 10:21:40;;;;;;;;;;;22.70;44.30;;;;;;5096897;28;19919;-69
2024/01/03 10:24:07;;;;;;;;;;;23.00;43.60;;;;;;5114772;28;20267;-69
2024/01/03 10:26:36;;;;;;;;;;;23.40;43.20;;;;;;5114648;28;19920;-70
2024/01/03 10:29:09;;;;;;;;;;;23.50;42.80;;;;;;5114599;28;20378;-69
2024/01/03 10:31:35;;;;;;;;;;;23.60;42.70;;;;;;5096366;28;19926;-70
2024/01/03 10:34:01;;;;;;;;;;;23.50;42.60;;;;;;5096509;28;19919;-69
2024/01/03 10:36:33;;;;;;;;;;;23.50;42.70;;;;;;5096540;28;19947;-69
2024/01/03 10:38:59;;;;;;;;;;;23.40;42.80;;;;;;5114587;28;20336;-69
2024/01/03 10:41:25;;;;;;;;;;;23.30;42.90;;;;;;5114341;28;19920;-69
2024/01/03 10:43:51;;;;;;;;;;;23.20;43.20;;;;;;5114294;28;20359;-69
2024/01/03 10:46:18;;;;;;;;;;;23.00;43.30;;;;;;5096379;28;19920;-69
2024/01/03 10:48:43;;;;;;;;;;;22.90;43.60;;;;;;5095987;28;19923;-69
2024/01/03 10:51:13;;;;;;;;;;;22.70;43.80;;;;;;5095891;28;19927;-69
2024/01/03 10:53:42;;;;;;;;;;;22.60;44.00;;;;;;5096069;28;19920;-69
2024/01/03 10:56:09;;;;;;;;;;;22.40;44.20;;;;;;5095710;28;19972;-69
2024/01/03 10:58:39;;;;;;;;;;;22.20;45.30;;;;;;5094852;28;19919;-69
2024/01/03 11:01:22;;;;;;;;;;;22.00;44.90;;;;;;5113948;28;19920;-69
2024/01/03 11:03:53;;;;;;;;;;;21.80;45.10;;;;;;5095623;28;19924;-69
2024/01/03 11:06:22;;;;;;;;;;;21.60;45.60;;;;;;5095827;28;19927;-69
2024/01/03 11:08:49;;;;;;;;;;;21.40;45.80;;;;;;5095999;28;19920;-69
2024/01/03 11:11:30;;;;;;;;;;;21.20;46.20;;;;;;5113680;28;20285;-69
2024/01/03 11:13:57;;;;;;;;;;;21.10;46.50;;;;;;5095499;28;19931;-69
2024/01/03 11:16:39;;;;;;;;;;;20.90;46.80;;;;;;5095296;28;19997;-71
2024/01/03 11:19:05;;;;;;;;;;;20.70;47.10;;;;;;5113656;28;19943;-70
2024/01/03 11:27:04;;;;;;;;;;;20.30;47.90;;;;;;5110296;27;19912;-68
2024/01/03 11:32:26;;;;;;;;;;;20.10;48.30;;;;;;5110206;27;19912;-68
2024/01/03 11:34:52;;;;;;;;;;;20.00;48.50;;;;;;5110360;28;20381;-67
2024/01/03 11:40:05;;;;;;;;;;;19.80;48.90;;;;;;5110324;27;20387;-67
2024/01/03 11:42:32;;;;;;;;;;;19.60;48.90;;;;;;5109353;28;19920;-68
2024/01/03 11:45:00;;;;;;;;;;;19.60;49.10;;;;;;5110223;28;19920;-67
2024/01/03 11:47:35;;;;;;;;;;;19.60;49.30;;;;;;5109109;28;19993;-68
2024/01/03 11:50:03;;;;;;;;;;;19.50;49.50;;;;;;5109308;28;19957;-68
2024/01/03 11:52:33;;;;;;;;;;;19.50;49.60;;;;;;5109043;28;19920;-68
2024/01/03 11:55:16;;;;;;;;;;;19.30;49.80;;;;;;5108910;28;19919;-67
2024/01/03 11:57:43;;;;;;;;;;;19.20;49.90;;;;;;5108868;28;20010;-67
2024/01/03 12:00:11;;;;;;;;;;;19.10;50.00;;;;;;5109040;28;20295;-67
2024/01/03 12:02:36;;;;;;;;;;;19.10;50.20;;;;;;5108905;28;19970;-67
2024/01/03 12:05:03;;;;;;;;;;;19.00;50.40;;;;;;5109938;28;20356;-68
2024/01/03 12:07:30;;;;;;;;;;;18.90;50.50;;;;;;5108756;28;20033;-68
2024/01/03 12:09:56;;;;;;;;;;;18.90;50.70;;;;;;5108682;28;20350;-67
2024/01/03 12:12:22;;;;;;;;;;;18.80;50.70;;;;;;5108484;28;20022;-68
2024/01/03 12:14:52;;;;;;;;;;;18.80;50.90;;;;;;5108786;28;20002;-67
2024/01/03 12:17:24;;;;;;;;;;;18.70;51.00;;;;;;5109750;28;20049;-68
2024/01/03 12:19:50;;;;;;;;;;;18.70;51.20;;;;;;5109840;28;19924;-68
2024/01/03 12:22:20;;;;;;;;;;;18.60;51.20;;;;;;5109624;28;19980;-68
2024/01/03 12:24:46;;;;;;;;;;;18.50;51.30;;;;;;5108419;28;20036;-68
2024/01/03 12:27:18;;;;;;;;;;;18.50;51.40;;;;;;5108145;28;20397;-68
2024/01/03 12:29:44;;;;;;;;;;;18.50;51.50;;;;;;5109463;28;19924;-68
2024/01/03 12:32:10;;;;;;;;;;;18.50;51.60;;;;;;5142327;27;20287;-67
2024/01/03 12:34:36;;;;;;;;;;;18.40;51.60;;;;;;5108490;28;19920;-67
2024/01/03 12:37:01;;;;;;;;;;;18.40;51.90;;;;;;5108177;28;20409;-67
2024/01/03 12:39:32;;;;;;;;;;;18.30;51.80;;;;;;5107426;28;19931;-68
2024/01/03 12:41:57;;;;;;;;;;;18.30;51.90;;;;;;5109171;28;20280;-67
2024/01/03 12:44:23;;;;;;;;;;;18.30;52.00;;;;;;5107963;28;19971;-68
2024/01/03 12:46:48;;;;;;;;;;;18.20;52.10;;;;;;5107807;28;19977;-68
2024/01/03 12:49:14;;;;;;;;;;;18.10;52.20;;;;;;5106590;28;19928;-68
2024/01/03 12:51:39;;;;;;;;;;;18.10;52.30;;;;;;5093805;28;19920;-68
2024/01/03 12:54:05;;;;;;;;;;;18.00;52.40;;;;;;5093859;28;20003;-67
2024/01/03 12:56:31;;;;;;;;;;;18.00;52.50;;;;;;5095543;28;20014;-68
2024/01/03 12:58:56;;;;;;;;;;;18.00;52.70;;;;;;5093983;28;20325;-68
2024/01/03 13:01:22;;;;;;;;;;;17.90;52.70;;;;;;5095560;28;19985;-68
2024/01/03 13:03:47;;;;;;;;;;;17.80;52.80;;;;;;5095145;28;20371;-68
2024/01/03 13:06:13;;;;;;;;;;;17.80;52.90;;;;;;5093775;28;19968;-67
2024/01/03 13:08:39;;;;;;;;;;;17.70;53.00;;;;;;5093749;28;20057;-68
2024/01/03 13:11:05;;;;;;;;;;;17.80;53.20;;;;;;5094146;28;20005;-67
2024/01/03 13:13:30;;;;;;;;;;;17.70;53.20;;;;;;5094618;28;20426;-67
2024/01/03 13:15:56;;;;;;;;;;;17.60;53.30;;;;;;5093842;28;20061;-68
2024/01/03 13:18:21;;;;;;;;;;;17.60;53.40;;;;;;5094714;28;19931;-68
2024/01/03 13:20:47;;;;;;;;;;;17.60;53.50;;;;;;5093817;28;19970;-68
2024/01/03 13:23:12;;;;;;;;;;;17.50;53.60;;;;;;5093814;28;19920;-67
2024/01/03 13:25:38;;;;;;;;;;;17.50;53.70;;;;;;5093325;28;19927;-68
2024/01/03 13:28:04;;;;;;;;;;;17.50;53.80;;;;;;5093714;28;19927;-67
2024/01/03 13:30:29;;;;;;;;;;;17.40;53.90;;;;;;5093535;28;20368;-67
2024/01/03 13:32:55;;;;;;;;;;;17.40;54.00;;;;;;5093589;28;20295;-67
2024/01/03 13:35:20;;;;;;;;;;;17.40;54.10;;;;;;5093270;28;19920;-67
2024/01/03 13:37:46;;;;;;;;;;;17.30;54.20;;;;;;5094576;28;19934;-68
2024/01/03 13:40:11;;;;;;;;;;;17.30;54.30;;;;;;5096463;28;19985;-68
2024/01/03 13:42:37;;;;;;;;;;;17.20;54.30;;;;;;5096409;28;19945;-67
2024/01/03 13:45:03;;;;;;;;;;;17.20;54.50;;;;;;5096893;28;20178;-67
2024/01/03 13:47:28;;;;;;;;;;;17.20;54.60;;;;;;5114766;28;20003;-68
2024/01/03 13:49:54;;;;;;;;;;;17.10;54.70;;;;;;5096639;28;20413;-68
2024/01/03 13:52:19;;;;;;;;;;;17.10;54.80;;;;;;5096518;28;20390;-68
2024/01/03 13:54:45;;;;;;;;;;;17.10;54.90;;;;;;5114470;28;19927;-67
2024/01/03 13:57:11;;;;;;;;;;;17.00;54.90;;;;;;5096664;28;19935;-68
2024/01/03 13:59:36;;;;;;;;;;;17.00;55.00;;;;;;5096129;28;19923;-67
2024/01/03 14:02:02;;;;;;;;;;;17.00;55.10;;;;;;5113365;28;19919;-67
2024/01/03 14:04:27;;;;;;;;;;;16.90;55.20;;;;;;5114544;28;20023;-68
2024/01/03 14:06:53;;;;;;;;;;;16.90;55.30;;;;;;5096410;28;19920;-67
2024/01/03 14:09:19;;;;;;;;;;;16.90;55.30;;;;;;5096021;28;19919;-67
2024/01/03 14:11:44;;;;;;;;;;;16.90;55.40;;;;;;5096408;28;19969;-68
2024/01/03 14:14:10;;;;;;;;;;;16.80;55.40;;;;;;5114190;28;19920;-67
2024/01/03 14:16:35;;;;;;;;;;;16.80;55.50;;;;;;5096075;28;19926;-68
2024/01/03 14:19:01;;;;;;;;;;;16.80;55.60;;;;;;5095732;28;19924;-69
2024/01/03 14:21:27;;;;;;;;;;;16.80;55.70;;;;;;5095740;28;19925;-68
2024/01/03 14:23:54;;;;;;;;;;;16.70;55.70;;;;;;5096160;28;19919;-67
2024/01/03 14:26:21;;;;;;;;;;;16.70;55.90;;;;;;5113972;28;20023;-68